sensor_id;sensor_type;location;lat;lon;timestamp;temperature;humidity
48998;DHT22;34807;51.456;7.244;2023-08-17T00:00:45;20.70;95.50
48998;DHT22;34807;51.456;7.244;2023-08-17T00:03:11;20.70;95.60
48998;DHT22;34807;51.456;7.244;2023-08-17T00:05:37;20.70;95.60
48998;DHT22;34807;51.456;7.244;2023-08-17T00:08:02;20.60;95.60
48998;DHT22;34807;51.456;7.244;2023-08-17T00:10:28;20.60;95.90
48998;DHT22;34807;51.456;7.244;2023-08-17T00:12:53;20.60;95.70
48998;DHT22;34807;51.456;7.244;2023-08-17T00:15:19;20.60;95.70
48998;DHT22;34807;51.456;7.244;2023-08-17T00:17:45;20.60;95.70
48998;DHT22;34807;51.456;7.244;2023-08-17T00:20:10;20.60;95.70
48998;DHT22;34807;51.456;7.244;2023-08-17T00:22:36;20.60;95.70
48998;DHT22;34807;51.456;7.244;2023-08-17T00:25:02;20.60;95.70
48998;DHT22;34807;51.456;7.244;2023-08-17T00:27:31;20.50;95.70
48998;DHT22;34807;51.456;7.244;2023-08-17T00:29:57;20.50;95.70
48998;DHT22;34807;51.456;7.244;2023-08-17T00:32:22;20.50;95.80
48998;DHT22;34807;51.456;7.244;2023-08-17T00:34:48;20.50;95.80
48998;DHT22;34807;51.456;7.244;2023-08-17T00:37:13;20.50;95.80
48998;DHT22;34807;51.456;7.244;2023-08-17T00:39:39;20.50;95.80
48998;DHT22;34807;51.456;7.244;2023-08-17T00:42:04;20.40;95.80
48998;DHT22;34807;51.456;7.244;2023-08-17T00:44:30;20.40;95.80
48998;DHT22;34807;51.456;7.244;2023-08-17T00:46:55;20.40;95.80
48998;DHT22;34807;51.456;7.244;2023-08-17T00:49:21;20.40;95.90
48998;DHT22;34807;51.456;7.244;2023-08-17T00:51:47;20.40;95.90
48998;DHT22;34807;51.456;7.244;2023-08-17T00:54:13;20.40;95.90
48998;DHT22;34807;51.456;7.244;2023-08-17T00:56:38;20.40;96.00
48998;DHT22;34807;51.456;7.244;2023-08-17T00:59:04;20.40;95.90
48998;DHT22;34807;51.456;7.244;2023-08-17T01:01:30;20.40;95.90
48998;DHT22;34807;51.456;7.244;2023-08-17T01:03:55;20.30;95.90
48998;DHT22;34807;51.456;7.244;2023-08-17T01:06:21;20.30;96.00
48998;DHT22;34807;51.456;7.244;2023-08-17T01:08:46;20.30;96.00
48998;DHT22;34807;51.456;7.244;2023-08-17T01:16:29;20.30;96.00
48998;DHT22;34807;51.456;7.244;2023-08-17T01:18:57;20.30;96.00
48998;DHT22;34807;51.456;7.244;2023-08-17T01:21:24;20.30;96.00
48998;DHT22;34807;51.456;7.244;2023-08-17T01:23:49;20.30;96.00
48998;DHT22;34807;51.456;7.244;2023-08-17T01:26:15;20.20;96.10
48998;DHT22;34807;51.456;7.244;2023-08-17T01:28:42;20.20;96.00
48998;DHT22;34807;51.456;7.244;2023-08-17T01:33:40;20.20;96.00
48998;DHT22;34807;51.456;7.244;2023-08-17T01:36:11;20.20;96.10
48998;DHT22;34807;51.456;7.244;2023-08-17T01:38:38;20.20;96.20
48998;DHT22;34807;51.456;7.244;2023-08-17T01:41:05;20.20;96.10
48998;DHT22;34807;51.456;7.244;2023-08-17T01:43:32;20.10;96.10
48998;DHT22;34807;51.456;7.244;2023-08-17T01:45:59;20.10;96.10
48998;DHT22;34807;51.456;7.244;2023-08-17T01:48:24;20.10;96.10
48998;DHT22;34807;51.456;7.244;2023-08-17T01:50:50;20.10;96.10
48998;DHT22;34807;51.456;7.244;2023-08-17T01:53:15;20.10;96.10
48998;DHT22;34807;51.456;7.244;2023-08-17T01:55:41;20.10;96.20
48998;DHT22;34807;51.456;7.244;2023-08-17T01:58:06;20.10;96.20
48998;DHT22;34807;51.456;7.244;2023-08-17T02:00:32;20.10;96.20
48998;DHT22;34807;51.456;7.244;2023-08-17T02:02:57;20.00;96.20
48998;DHT22;34807;51.456;7.244;2023-08-17T02:05:23;20.00;96.10
48998;DHT22;34807;51.456;7.244;2023-08-17T02:07:48;20.00;96.20
48998;DHT22;34807;51.456;7.244;2023-08-17T02:10:14;20.00;96.20
48998;DHT22;34807;51.456;7.244;2023-08-17T02:12:39;20.00;96.20
48998;DHT22;34807;51.456;7.244;2023-08-17T02:15:05;20.00;96.20
48998;DHT22;34807;51.456;7.244;2023-08-17T02:17:30;20.00;96.20
48998;DHT22;34807;51.456;7.244;2023-08-17T02:19:56;20.00;96.20
48998;DHT22;34807;51.456;7.244;2023-08-17T02:22:21;20.00;96.20
48998;DHT22;34807;51.456;7.244;2023-08-17T02:24:47;20.00;96.20
48998;DHT22;34807;51.456;7.244;2023-08-17T02:27:12;20.00;96.30
48998;DHT22;34807;51.456;7.244;2023-08-17T02:29:38;19.90;96.30
48998;DHT22;34807;51.456;7.244;2023-08-17T02:32:04;19.90;96.30
48998;DHT22;34807;51.456;7.244;2023-08-17T02:34:30;19.90;96.30
48998;DHT22;34807;51.456;7.244;2023-08-17T02:36:55;19.90;96.30
48998;DHT22;34807;51.456;7.244;2023-08-17T02:39:21;19.90;96.30
48998;DHT22;34807;51.456;7.244;2023-08-17T02:41:46;19.90;96.30
48998;DHT22;34807;51.456;7.244;2023-08-17T02:44:14;19.80;96.20
48998;DHT22;34807;51.456;7.244;2023-08-17T02:46:40;19.90;96.30
48998;DHT22;34807;51.456;7.244;2023-08-17T02:49:05;19.90;96.40
48998;DHT22;34807;51.456;7.244;2023-08-17T02:51:31;19.80;96.40
48998;DHT22;34807;51.456;7.244;2023-08-17T02:53:56;19.80;96.30
48998;DHT22;34807;51.456;7.244;2023-08-17T02:56:22;19.80;96.30
48998;DHT22;34807;51.456;7.244;2023-08-17T02:58:47;19.80;96.40
48998;DHT22;34807;51.456;7.244;2023-08-17T03:01:13;19.80;96.40
48998;DHT22;34807;51.456;7.244;2023-08-17T03:03:38;19.80;96.40
48998;DHT22;34807;51.456;7.244;2023-08-17T03:06:04;19.80;96.40
48998;DHT22;34807;51.456;7.244;2023-08-17T03:08:30;19.80;96.40
48998;DHT22;34807;51.456;7.244;2023-08-17T03:10:55;19.80;96.40
48998;DHT22;34807;51.456;7.244;2023-08-17T03:13:21;19.80;96.30
48998;DHT22;34807;51.456;7.244;2023-08-17T03:15:46;19.70;96.30
48998;DHT22;34807;51.456;7.244;2023-08-17T03:18:12;19.70;96.50
48998;DHT22;34807;51.456;7.244;2023-08-17T03:20:37;19.70;96.40
48998;DHT22;34807;51.456;7.244;2023-08-17T03:23:03;19.70;96.50
48998;DHT22;34807;51.456;7.244;2023-08-17T03:25:31;19.70;96.40
48998;DHT22;34807;51.456;7.244;2023-08-17T03:27:57;19.70;96.40
48998;DHT22;34807;51.456;7.244;2023-08-17T03:30:22;19.70;96.40
48998;DHT22;34807;51.456;7.244;2023-08-17T03:32:48;19.70;96.50
48998;DHT22;34807;51.456;7.244;2023-08-17T03:35:13;19.70;96.40
48998;DHT22;34807;51.456;7.244;2023-08-17T03:37:39;19.70;96.50
48998;DHT22;34807;51.456;7.244;2023-08-17T03:40:05;19.70;96.50
48998;DHT22;34807;51.456;7.244;2023-08-17T03:42:30;19.60;96.50
48998;DHT22;34807;51.456;7.244;2023-08-17T03:44:56;19.70;96.50
48998;DHT22;34807;51.456;7.244;2023-08-17T03:47:21;19.60;96.50
48998;DHT22;34807;51.456;7.244;2023-08-17T03:49:47;19.60;96.50
48998;DHT22;34807;51.456;7.244;2023-08-17T03:52:13;19.60;96.50
48998;DHT22;34807;51.456;7.244;2023-08-17T03:54:38;19.60;96.50
48998;DHT22;34807;51.456;7.244;2023-08-17T03:57:03;19.60;96.50
48998;DHT22;34807;51.456;7.244;2023-08-17T03:59:29;19.60;96.60
48998;DHT22;34807;51.456;7.244;2023-08-17T04:01:54;19.60;96.60
48998;DHT22;34807;51.456;7.244;2023-08-17T04:04:20;19.60;96.60
48998;DHT22;34807;51.456;7.244;2023-08-17T04:06:45;19.60;96.60
48998;DHT22;34807;51.456;7.244;2023-08-17T04:09:11;19.60;96.60
48998;DHT22;34807;51.456;7.244;2023-08-17T04:11:36;19.60;96.60
48998;DHT22;34807;51.456;7.244;2023-08-17T04:14:02;19.60;96.60
48998;DHT22;34807;51.456;7.244;2023-08-17T04:16:28;19.60;96.60
48998;DHT22;34807;51.456;7.244;2023-08-17T04:18:54;19.50;96.60
48998;DHT22;34807;51.456;7.244;2023-08-17T04:21:19;19.50;96.60
48998;DHT22;34807;51.456;7.244;2023-08-17T04:23:45;19.50;96.70
48998;DHT22;34807;51.456;7.244;2023-08-17T04:26:11;19.50;96.70
48998;DHT22;34807;51.456;7.244;2023-08-17T04:28:36;19.50;96.60
48998;DHT22;34807;51.456;7.244;2023-08-17T04:31:02;19.50;96.60
48998;DHT22;34807;51.456;7.244;2023-08-17T04:33:27;19.50;96.60
48998;DHT22;34807;51.456;7.244;2023-08-17T04:35:53;19.50;96.60
48998;DHT22;34807;51.456;7.244;2023-08-17T04:38:18;19.50;96.60
48998;DHT22;34807;51.456;7.244;2023-08-17T04:40:44;19.50;96.70
48998;DHT22;34807;51.456;7.244;2023-08-17T04:43:10;19.40;96.60
48998;DHT22;34807;51.456;7.244;2023-08-17T04:45:35;19.40;96.60
48998;DHT22;34807;51.456;7.244;2023-08-17T04:48:01;19.40;96.70
48998;DHT22;34807;51.456;7.244;2023-08-17T04:50:26;19.40;96.70
48998;DHT22;34807;51.456;7.244;2023-08-17T04:52:52;19.40;96.70
48998;DHT22;34807;51.456;7.244;2023-08-17T04:55:17;19.40;96.70
48998;DHT22;34807;51.456;7.244;2023-08-17T04:57:43;19.40;96.60
48998;DHT22;34807;51.456;7.244;2023-08-17T05:00:08;19.40;96.60
48998;DHT22;34807;51.456;7.244;2023-08-17T05:02:35;19.40;96.70
48998;DHT22;34807;51.456;7.244;2023-08-17T05:05:04;19.40;96.70
48998;DHT22;34807;51.456;7.244;2023-08-17T05:07:29;19.40;96.70
48998;DHT22;34807;51.456;7.244;2023-08-17T05:09:55;19.40;96.60
48998;DHT22;34807;51.456;7.244;2023-08-17T05:12:20;19.40;96.70
48998;DHT22;34807;51.456;7.244;2023-08-17T05:14:46;19.40;96.70
48998;DHT22;34807;51.456;7.244;2023-08-17T05:17:11;19.40;96.70
48998;DHT22;34807;51.456;7.244;2023-08-17T05:19:37;19.40;96.70
48998;DHT22;34807;51.456;7.244;2023-08-17T05:22:05;19.30;96.70
48998;DHT22;34807;51.456;7.244;2023-08-17T05:24:31;19.40;96.70
48998;DHT22;34807;51.456;7.244;2023-08-17T05:26:56;19.40;96.70
48998;DHT22;34807;51.456;7.244;2023-08-17T05:29:23;19.40;96.80
48998;DHT22;34807;51.456;7.244;2023-08-17T05:31:48;19.40;96.70
48998;DHT22;34807;51.456;7.244;2023-08-17T05:34:14;19.30;96.80
48998;DHT22;34807;51.456;7.244;2023-08-17T05:36:40;19.40;96.70
48998;DHT22;34807;51.456;7.244;2023-08-17T05:39:06;19.30;96.70
48998;DHT22;34807;51.456;7.244;2023-08-17T05:41:31;19.30;96.80
48998;DHT22;34807;51.456;7.244;2023-08-17T05:43:57;19.30;96.70
48998;DHT22;34807;51.456;7.244;2023-08-17T05:46:23;19.30;96.70
48998;DHT22;34807;51.456;7.244;2023-08-17T05:48:49;19.30;96.70
48998;DHT22;34807;51.456;7.244;2023-08-17T05:51:14;19.30;96.80
48998;DHT22;34807;51.456;7.244;2023-08-17T05:53:40;19.30;96.70
48998;DHT22;34807;51.456;7.244;2023-08-17T05:56:05;19.30;96.70
48998;DHT22;34807;51.456;7.244;2023-08-17T05:58:31;19.30;96.70
48998;DHT22;34807;51.456;7.244;2023-08-17T06:01:03;19.30;96.70
48998;DHT22;34807;51.456;7.244;2023-08-17T06:03:29;19.30;96.70
48998;DHT22;34807;51.456;7.244;2023-08-17T06:05:54;19.30;96.70
48998;DHT22;34807;51.456;7.244;2023-08-17T06:08:20;19.30;96.80
48998;DHT22;34807;51.456;7.244;2023-08-17T06:10:45;19.30;96.80
48998;DHT22;34807;51.456;7.244;2023-08-17T06:13:11;19.30;96.80
48998;DHT22;34807;51.456;7.244;2023-08-17T06:15:36;19.30;96.80
48998;DHT22;34807;51.456;7.244;2023-08-17T06:18:02;19.30;96.80
48998;DHT22;34807;51.456;7.244;2023-08-17T06:20:27;19.30;96.80
48998;DHT22;34807;51.456;7.244;2023-08-17T06:22:53;19.30;96.80
48998;DHT22;34807;51.456;7.244;2023-08-17T06:25:18;19.30;96.80
48998;DHT22;34807;51.456;7.244;2023-08-17T06:27:44;19.30;96.80
48998;DHT22;34807;51.456;7.244;2023-08-17T06:30:10;19.30;97.10
48998;DHT22;34807;51.456;7.244;2023-08-17T06:32:36;19.30;96.80
48998;DHT22;34807;51.456;7.244;2023-08-17T06:35:01;19.30;96.70
48998;DHT22;34807;51.456;7.244;2023-08-17T06:37:27;19.30;96.80
48998;DHT22;34807;51.456;7.244;2023-08-17T06:39:52;19.30;96.80
48998;DHT22;34807;51.456;7.244;2023-08-17T06:42:18;19.30;96.80
48998;DHT22;34807;51.456;7.244;2023-08-17T06:44:43;19.30;96.90
48998;DHT22;34807;51.456;7.244;2023-08-17T06:47:09;19.30;96.80
48998;DHT22;34807;51.456;7.244;2023-08-17T06:49:35;19.30;96.90
48998;DHT22;34807;51.456;7.244;2023-08-17T06:52:00;19.30;96.80
48998;DHT22;34807;51.456;7.244;2023-08-17T06:54:26;19.30;96.80
48998;DHT22;34807;51.456;7.244;2023-08-17T06:56:51;19.30;96.80
48998;DHT22;34807;51.456;7.244;2023-08-17T06:59:17;19.30;97.10
48998;DHT22;34807;51.456;7.244;2023-08-17T07:01:42;19.30;96.90
48998;DHT22;34807;51.456;7.244;2023-08-17T07:04:08;19.30;96.80
48998;DHT22;34807;51.456;7.244;2023-08-17T07:06:34;19.30;96.80
48998;DHT22;34807;51.456;7.244;2023-08-17T07:08:59;19.30;96.90
48998;DHT22;34807;51.456;7.244;2023-08-17T07:11:25;19.40;96.90
48998;DHT22;34807;51.456;7.244;2023-08-17T07:13:51;19.40;96.80
48998;DHT22;34807;51.456;7.244;2023-08-17T07:16:16;19.40;96.90
48998;DHT22;34807;51.456;7.244;2023-08-17T07:18:42;19.40;96.80
48998;DHT22;34807;51.456;7.244;2023-08-17T07:21:08;19.40;96.80
48998;DHT22;34807;51.456;7.244;2023-08-17T07:23:33;19.40;96.90
48998;DHT22;34807;51.456;7.244;2023-08-17T07:25:59;19.40;96.90
48998;DHT22;34807;51.456;7.244;2023-08-17T07:28:25;19.40;96.90
48998;DHT22;34807;51.456;7.244;2023-08-17T07:30:50;19.40;96.90
48998;DHT22;34807;51.456;7.244;2023-08-17T07:33:16;19.40;96.90
48998;DHT22;34807;51.456;7.244;2023-08-17T07:35:41;19.40;96.90
48998;DHT22;34807;51.456;7.244;2023-08-17T07:38:07;19.40;96.80
48998;DHT22;34807;51.456;7.244;2023-08-17T07:40:32;19.40;96.80
48998;DHT22;34807;51.456;7.244;2023-08-17T07:42:58;19.40;97.10
48998;DHT22;34807;51.456;7.244;2023-08-17T07:45:23;19.40;96.80
48998;DHT22;34807;51.456;7.244;2023-08-17T07:47:49;19.40;96.80
48998;DHT22;34807;51.456;7.244;2023-08-17T07:50:14;19.50;96.90
48998;DHT22;34807;51.456;7.244;2023-08-17T07:52:40;19.50;96.80
48998;DHT22;34807;51.456;7.244;2023-08-17T07:55:05;19.50;96.90
48998;DHT22;34807;51.456;7.244;2023-08-17T07:57:31;19.50;96.80
48998;DHT22;34807;51.456;7.244;2023-08-17T07:59:56;19.50;96.80
48998;DHT22;34807;51.456;7.244;2023-08-17T08:02:22;19.60;96.70
48998;DHT22;34807;51.456;7.244;2023-08-17T08:04:47;19.60;96.70
48998;DHT22;34807;51.456;7.244;2023-08-17T08:07:13;19.60;96.70
48998;DHT22;34807;51.456;7.244;2023-08-17T08:09:38;19.60;96.70
48998;DHT22;34807;51.456;7.244;2023-08-17T08:12:05;19.60;96.70
48998;DHT22;34807;51.456;7.244;2023-08-17T08:14:30;19.70;96.70
48998;DHT22;34807;51.456;7.244;2023-08-17T08:16:56;19.70;96.70
48998;DHT22;34807;51.456;7.244;2023-08-17T08:19:21;19.60;96.70
48998;DHT22;34807;51.456;7.244;2023-08-17T08:21:47;19.60;96.70
48998;DHT22;34807;51.456;7.244;2023-08-17T08:24:12;19.70;96.70
48998;DHT22;34807;51.456;7.244;2023-08-17T08:26:38;19.70;96.70
48998;DHT22;34807;51.456;7.244;2023-08-17T08:29:03;19.70;96.60
48998;DHT22;34807;51.456;7.244;2023-08-17T08:31:29;19.70;96.60
48998;DHT22;34807;51.456;7.244;2023-08-17T08:33:55;19.70;96.60
48998;DHT22;34807;51.456;7.244;2023-08-17T08:36:20;19.80;96.60
48998;DHT22;34807;51.456;7.244;2023-08-17T08:38:46;19.80;96.60
48998;DHT22;34807;51.456;7.244;2023-08-17T08:41:11;19.80;96.60
48998;DHT22;34807;51.456;7.244;2023-08-17T08:43:38;19.80;96.60
48998;DHT22;34807;51.456;7.244;2023-08-17T08:46:03;19.80;96.60
48998;DHT22;34807;51.456;7.244;2023-08-17T08:48:29;19.80;96.60
48998;DHT22;34807;51.456;7.244;2023-08-17T08:50:55;19.80;96.60
48998;DHT22;34807;51.456;7.244;2023-08-17T08:53:23;19.80;96.60
48998;DHT22;34807;51.456;7.244;2023-08-17T08:55:53;19.90;96.70
48998;DHT22;34807;51.456;7.244;2023-08-17T08:58:20;19.90;96.60
48998;DHT22;34807;51.456;7.244;2023-08-17T09:00:46;19.90;96.50
48998;DHT22;34807;51.456;7.244;2023-08-17T09:03:13;19.90;96.50
48998;DHT22;34807;51.456;7.244;2023-08-17T09:05:39;20.00;96.60
48998;DHT22;34807;51.456;7.244;2023-08-17T09:08:08;20.00;96.50
48998;DHT22;34807;51.456;7.244;2023-08-17T09:10:33;20.00;96.60
48998;DHT22;34807;51.456;7.244;2023-08-17T09:12:59;20.00;96.60
48998;DHT22;34807;51.456;7.244;2023-08-17T09:15:24;20.10;96.60
48998;DHT22;34807;51.456;7.244;2023-08-17T09:17:50;20.10;96.60
48998;DHT22;34807;51.456;7.244;2023-08-17T09:20:35;20.10;96.50
48998;DHT22;34807;51.456;7.244;2023-08-17T09:23:02;20.10;96.50
48998;DHT22;34807;51.456;7.244;2023-08-17T09:25:28;20.10;96.50
48998;DHT22;34807;51.456;7.244;2023-08-17T09:27:54;20.20;96.50
48998;DHT22;34807;51.456;7.244;2023-08-17T09:30:20;20.20;96.50
48998;DHT22;34807;51.456;7.244;2023-08-17T09:32:46;20.20;96.50
48998;DHT22;34807;51.456;7.244;2023-08-17T09:35:12;20.20;96.50
48998;DHT22;34807;51.456;7.244;2023-08-17T09:37:38;20.20;96.50
48998;DHT22;34807;51.456;7.244;2023-08-17T09:40:04;20.20;96.60
48998;DHT22;34807;51.456;7.244;2023-08-17T09:42:29;20.20;96.50
48998;DHT22;34807;51.456;7.244;2023-08-17T09:44:59;20.20;96.50
48998;DHT22;34807;51.456;7.244;2023-08-17T09:47:26;20.20;96.50
48998;DHT22;34807;51.456;7.244;2023-08-17T09:49:52;20.20;96.50
48998;DHT22;34807;51.456;7.244;2023-08-17T09:52:18;20.30;96.40
48998;DHT22;34807;51.456;7.244;2023-08-17T09:54:45;20.30;96.50
48998;DHT22;34807;51.456;7.244;2023-08-17T09:57:11;20.30;96.50
48998;DHT22;34807;51.456;7.244;2023-08-17T09:59:37;20.40;96.50
48998;DHT22;34807;51.456;7.244;2023-08-17T10:02:03;20.40;96.50
48998;DHT22;34807;51.456;7.244;2023-08-17T10:04:29;20.40;96.60
48998;DHT22;34807;51.456;7.244;2023-08-17T10:06:58;20.40;96.50
48998;DHT22;34807;51.456;7.244;2023-08-17T10:09:25;20.40;96.60
48998;DHT22;34807;51.456;7.244;2023-08-17T10:11:52;20.40;96.50
48998;DHT22;34807;51.456;7.244;2023-08-17T10:14:23;20.40;96.50
48998;DHT22;34807;51.456;7.244;2023-08-17T10:16:53;20.50;96.40
48998;DHT22;34807;51.456;7.244;2023-08-17T10:21:54;20.60;96.40
48998;DHT22;34807;51.456;7.244;2023-08-17T10:24:21;20.60;96.40
48998;DHT22;34807;51.456;7.244;2023-08-17T10:26:48;20.60;96.40
48998;DHT22;34807;51.456;7.244;2023-08-17T10:29:14;20.60;96.40
48998;DHT22;34807;51.456;7.244;2023-08-17T10:31:40;20.60;96.40
48998;DHT22;34807;51.456;7.244;2023-08-17T10:34:08;20.70;96.40
48998;DHT22;34807;51.456;7.244;2023-08-17T10:36:34;20.70;96.40
48998;DHT22;34807;51.456;7.244;2023-08-17T10:41:46;20.70;96.20
48998;DHT22;34807;51.456;7.244;2023-08-17T10:44:11;20.80;96.30
48998;DHT22;34807;51.456;7.244;2023-08-17T10:46:37;20.80;96.30
48998;DHT22;34807;51.456;7.244;2023-08-17T10:49:06;20.80;96.20
48998;DHT22;34807;51.456;7.244;2023-08-17T10:51:32;20.90;96.10
48998;DHT22;34807;51.456;7.244;2023-08-17T10:54:01;20.90;96.20
48998;DHT22;34807;51.456;7.244;2023-08-17T10:56:28;20.90;96.20
48998;DHT22;34807;51.456;7.244;2023-08-17T10:58:54;21.00;96.10
48998;DHT22;34807;51.456;7.244;2023-08-17T11:04:10;21.00;96.10
48998;DHT22;34807;51.456;7.244;2023-08-17T11:06:36;21.00;96.00
48998;DHT22;34807;51.456;7.244;2023-08-17T11:09:05;21.10;96.00
48998;DHT22;34807;51.456;7.244;2023-08-17T11:11:31;21.10;96.00
48998;DHT22;34807;51.456;7.244;2023-08-17T11:13:57;21.20;96.00
48998;DHT22;34807;51.456;7.244;2023-08-17T11:16:22;21.20;95.90
48998;DHT22;34807;51.456;7.244;2023-08-17T11:18:48;21.30;95.90
48998;DHT22;34807;51.456;7.244;2023-08-17T11:21:15;21.30;95.90
48998;DHT22;34807;51.456;7.244;2023-08-17T11:23:40;21.40;95.80
48998;DHT22;34807;51.456;7.244;2023-08-17T11:26:06;21.40;95.80
48998;DHT22;34807;51.456;7.244;2023-08-17T11:28:32;21.40;95.70
48998;DHT22;34807;51.456;7.244;2023-08-17T11:31:11;21.40;95.60
48998;DHT22;34807;51.456;7.244;2023-08-17T11:33:37;21.50;95.60
48998;DHT22;34807;51.456;7.244;2023-08-17T11:36:07;21.50;95.60
48998;DHT22;34807;51.456;7.244;2023-08-17T11:38:37;21.50;95.70
48998;DHT22;34807;51.456;7.244;2023-08-17T11:41:05;21.40;95.70
48998;DHT22;34807;51.456;7.244;2023-08-17T11:43:33;21.50;95.60
48998;DHT22;34807;51.456;7.244;2023-08-17T11:45:59;21.50;95.60
48998;DHT22;34807;51.456;7.244;2023-08-17T11:48:25;21.50;95.70
48998;DHT22;34807;51.456;7.244;2023-08-17T11:50:51;21.50;95.80
48998;DHT22;34807;51.456;7.244;2023-08-17T11:53:17;21.50;95.80
48998;DHT22;34807;51.456;7.244;2023-08-17T11:55:43;21.50;95.80
48998;DHT22;34807;51.456;7.244;2023-08-17T11:58:08;21.50;95.80
48998;DHT22;34807;51.456;7.244;2023-08-17T12:00:34;21.50;95.80
48998;DHT22;34807;51.456;7.244;2023-08-17T12:03:00;21.50;95.80
48998;DHT22;34807;51.456;7.244;2023-08-17T12:05:25;21.50;95.80
48998;DHT22;34807;51.456;7.244;2023-08-17T12:07:53;21.40;95.70
48998;DHT22;34807;51.456;7.244;2023-08-17T12:10:19;21.50;95.80
48998;DHT22;34807;51.456;7.244;2023-08-17T12:12:46;21.50;95.80
48998;DHT22;34807;51.456;7.244;2023-08-17T12:15:12;21.40;95.80
48998;DHT22;34807;51.456;7.244;2023-08-17T12:17:40;21.50;95.80
48998;DHT22;34807;51.456;7.244;2023-08-17T12:20:06;21.50;95.90
48998;DHT22;34807;51.456;7.244;2023-08-17T12:22:32;21.40;95.90
48998;DHT22;34807;51.456;7.244;2023-08-17T12:24:57;21.40;95.90
48998;DHT22;34807;51.456;7.244;2023-08-17T12:27:23;21.40;95.90
48998;DHT22;34807;51.456;7.244;2023-08-17T12:29:49;21.40;95.90
48998;DHT22;34807;51.456;7.244;2023-08-17T12:32:16;21.40;96.00
48998;DHT22;34807;51.456;7.244;2023-08-17T12:34:42;21.40;96.00
48998;DHT22;34807;51.456;7.244;2023-08-17T12:37:08;21.40;96.00
48998;DHT22;34807;51.456;7.244;2023-08-17T12:39:34;21.40;95.90
48998;DHT22;34807;51.456;7.244;2023-08-17T12:41:59;21.40;95.90
48998;DHT22;34807;51.456;7.244;2023-08-17T12:44:25;21.40;95.90
48998;DHT22;34807;51.456;7.244;2023-08-17T12:46:50;21.40;95.90
48998;DHT22;34807;51.456;7.244;2023-08-17T12:49:16;21.40;95.90
48998;DHT22;34807;51.456;7.244;2023-08-17T12:51:41;21.40;96.00
48998;DHT22;34807;51.456;7.244;2023-08-17T12:54:07;21.40;96.00
48998;DHT22;34807;51.456;7.244;2023-08-17T12:56:33;21.40;96.00
48998;DHT22;34807;51.456;7.244;2023-08-17T12:58:58;21.40;95.90
48998;DHT22;34807;51.456;7.244;2023-08-17T13:01:24;21.40;95.90
48998;DHT22;34807;51.456;7.244;2023-08-17T13:03:49;21.50;95.90
48998;DHT22;34807;51.456;7.244;2023-08-17T13:06:15;21.40;95.90
48998;DHT22;34807;51.456;7.244;2023-08-17T13:08:40;21.40;95.90
48998;DHT22;34807;51.456;7.244;2023-08-17T13:11:06;21.40;96.00
48998;DHT22;34807;51.456;7.244;2023-08-17T13:13:31;21.40;96.00
48998;DHT22;34807;51.456;7.244;2023-08-17T13:15:57;21.40;95.90
48998;DHT22;34807;51.456;7.244;2023-08-17T13:18:22;21.40;96.30
48998;DHT22;34807;51.456;7.244;2023-08-17T13:20:48;21.40;96.00
48998;DHT22;34807;51.456;7.244;2023-08-17T13:23:13;21.40;96.00
48998;DHT22;34807;51.456;7.244;2023-08-17T13:25:39;21.40;96.00
48998;DHT22;34807;51.456;7.244;2023-08-17T13:28:05;21.50;96.00
48998;DHT22;34807;51.456;7.244;2023-08-17T13:30:32;21.40;96.10
48998;DHT22;34807;51.456;7.244;2023-08-17T13:32:57;21.40;95.90
48998;DHT22;34807;51.456;7.244;2023-08-17T13:35:23;21.50;96.00
48998;DHT22;34807;51.456;7.244;2023-08-17T13:37:52;21.40;96.00
48998;DHT22;34807;51.456;7.244;2023-08-17T13:40:22;21.40;96.00
48998;DHT22;34807;51.456;7.244;2023-08-17T13:42:48;21.40;96.00
48998;DHT22;34807;51.456;7.244;2023-08-17T13:45:14;21.40;96.00
48998;DHT22;34807;51.456;7.244;2023-08-17T13:47:39;21.40;96.00
48998;DHT22;34807;51.456;7.244;2023-08-17T13:50:05;21.40;95.90
48998;DHT22;34807;51.456;7.244;2023-08-17T13:52:31;21.40;95.90
48998;DHT22;34807;51.456;7.244;2023-08-17T13:54:56;21.40;95.90
48998;DHT22;34807;51.456;7.244;2023-08-17T13:57:22;21.40;96.00
48998;DHT22;34807;51.456;7.244;2023-08-17T13:59:47;21.40;96.00
48998;DHT22;34807;51.456;7.244;2023-08-17T14:02:13;21.40;96.00
48998;DHT22;34807;51.456;7.244;2023-08-17T14:04:38;21.40;96.00
48998;DHT22;34807;51.456;7.244;2023-08-17T14:07:04;21.40;96.10
48998;DHT22;34807;51.456;7.244;2023-08-17T14:09:29;21.40;96.10
48998;DHT22;34807;51.456;7.244;2023-08-17T14:11:55;21.40;96.10
48998;DHT22;34807;51.456;7.244;2023-08-17T14:14:20;21.40;96.10
48998;DHT22;34807;51.456;7.244;2023-08-17T14:16:46;21.30;96.10
48998;DHT22;34807;51.456;7.244;2023-08-17T14:19:11;21.30;96.10
48998;DHT22;34807;51.456;7.244;2023-08-17T14:21:37;21.40;96.10
48998;DHT22;34807;51.456;7.244;2023-08-17T14:24:02;21.30;96.10
48998;DHT22;34807;51.456;7.244;2023-08-17T14:26:29;21.30;96.10
48998;DHT22;34807;51.456;7.244;2023-08-17T14:28:54;21.30;96.10
48998;DHT22;34807;51.456;7.244;2023-08-17T14:31:20;21.30;96.20
48998;DHT22;34807;51.456;7.244;2023-08-17T14:33:46;21.30;96.20
48998;DHT22;34807;51.456;7.244;2023-08-17T14:36:13;21.30;96.20
48998;DHT22;34807;51.456;7.244;2023-08-17T14:38:39;21.20;96.20
48998;DHT22;34807;51.456;7.244;2023-08-17T14:41:04;21.30;96.30
48998;DHT22;34807;51.456;7.244;2023-08-17T14:43:31;21.30;96.30
48998;DHT22;34807;51.456;7.244;2023-08-17T14:45:57;21.20;96.30
48998;DHT22;34807;51.456;7.244;2023-08-17T14:48:22;21.20;96.30
48998;DHT22;34807;51.456;7.244;2023-08-17T14:50:48;21.20;96.30
48998;DHT22;34807;51.456;7.244;2023-08-17T14:53:14;21.20;96.30
48998;DHT22;34807;51.456;7.244;2023-08-17T14:55:39;21.20;96.40
48998;DHT22;34807;51.456;7.244;2023-08-17T14:58:04;21.20;96.40
48998;DHT22;34807;51.456;7.244;2023-08-17T15:00:30;21.20;96.40
48998;DHT22;34807;51.456;7.244;2023-08-17T15:02:56;21.20;96.50
48998;DHT22;34807;51.456;7.244;2023-08-17T15:05:23;21.20;96.80
48998;DHT22;34807;51.456;7.244;2023-08-17T15:07:48;21.20;96.70
48998;DHT22;34807;51.456;7.244;2023-08-17T15:10:14;21.30;96.60
48998;DHT22;34807;51.456;7.244;2023-08-17T15:12:39;21.30;96.50
48998;DHT22;34807;51.456;7.244;2023-08-17T15:15:05;21.30;96.60
48998;DHT22;34807;51.456;7.244;2023-08-17T15:17:31;21.30;96.60
48998;DHT22;34807;51.456;7.244;2023-08-17T15:19:57;21.30;96.60
48998;DHT22;34807;51.456;7.244;2023-08-17T15:22:23;21.30;96.50
48998;DHT22;34807;51.456;7.244;2023-08-17T15:24:49;21.30;96.80
48998;DHT22;34807;51.456;7.244;2023-08-17T15:27:15;21.30;96.70
48998;DHT22;34807;51.456;7.244;2023-08-17T15:29:40;21.30;96.70
48998;DHT22;34807;51.456;7.244;2023-08-17T15:32:06;21.40;96.70
48998;DHT22;34807;51.456;7.244;2023-08-17T15:34:32;21.40;96.60
48998;DHT22;34807;51.456;7.244;2023-08-17T15:36:58;21.40;96.80